createdAt,value
2018-06-05T00:02:15.921Z,7.83
2018-06-05T00:04:43.248Z,7.00
2018-06-05T00:07:10.589Z,7.30
2018-06-05T00:09:37.898Z,7.23
2018-06-05T00:12:05.212Z,7.23
2018-06-05T00:14:32.571Z,7.40
2018-06-05T00:16:59.882Z,8.20
2018-06-05T00:19:27.194Z,7.30
2018-06-05T00:21:54.510Z,7.53
2018-06-05T00:24:21.824Z,8.10
2018-06-05T00:26:50.493Z,7.50
2018-06-05T00:29:17.776Z,7.53
2018-06-05T00:31:45.095Z,7.50
2018-06-05T00:34:12.408Z,7.77
2018-06-05T00:36:39.761Z,8.53
2018-06-05T00:39:07.183Z,7.87
2018-06-05T00:41:34.560Z,8.00
2018-06-05T00:44:01.923Z,7.70
2018-06-05T00:46:29.224Z,8.13
2018-06-05T00:48:56.606Z,8.10
2018-06-05T00:51:29.516Z,8.73
2018-06-05T00:53:56.858Z,7.83
2018-06-05T00:56:24.199Z,8.67
2018-06-05T00:58:52.068Z,8.20
2018-06-05T01:01:19.373Z,8.23
2018-06-05T01:03:46.694Z,7.43
2018-06-05T01:06:13.979Z,8.30
2018-06-05T01:08:41.375Z,8.60
2018-06-05T01:11:08.673Z,7.80
2018-06-05T01:13:35.980Z,8.67
2018-06-05T01:16:03.283Z,8.80
2018-06-05T01:18:30.618Z,8.43
2018-06-05T01:20:57.968Z,8.50
2018-06-05T01:23:25.291Z,9.63
2018-06-05T01:25:52.693Z,9.90
2018-06-05T01:28:20.045Z,9.30
2018-06-05T01:30:47.354Z,9.37
2018-06-05T01:33:14.637Z,8.93
2018-06-05T01:35:41.963Z,8.47
2018-06-05T01:38:09.276Z,9.17
2018-06-05T01:40:36.604Z,9.80
2018-06-05T01:43:03.950Z,9.60
2018-06-05T01:45:31.298Z,9.60
2018-06-05T01:47:58.640Z,9.73
2018-06-05T01:50:25.940Z,8.53
2018-06-05T01:52:53.269Z,10.10
2018-06-05T01:55:20.712Z,10.07
2018-06-05T01:57:48.044Z,9.33
2018-06-05T02:00:15.358Z,9.47
2018-06-05T02:02:42.650Z,9.87
2018-06-05T02:05:09.963Z,9.57
2018-06-05T02:07:37.253Z,10.30
2018-06-05T02:10:04.611Z,9.37
2018-06-05T02:12:31.952Z,9.63
2018-06-05T02:14:59.266Z,10.30
2018-06-05T02:17:26.583Z,10.03
2018-06-05T02:19:53.911Z,10.60
2018-06-05T02:22:21.248Z,10.70
2018-06-05T02:24:48.552Z,10.70
2018-06-05T02:27:15.887Z,10.87
2018-06-05T02:29:43.229Z,10.17
2018-06-05T02:32:10.587Z,10.80
2018-06-05T02:34:37.909Z,11.20
2018-06-05T02:37:05.219Z,10.53
2018-06-05T02:39:32.535Z,11.10
2018-06-05T02:42:00.737Z,10.37
2018-06-05T02:44:28.069Z,10.77
2018-06-05T02:46:55.428Z,10.60
2018-06-05T02:49:22.750Z,10.73
2018-06-05T02:51:50.055Z,10.57
2018-06-05T02:54:17.377Z,11.17
2018-06-05T02:56:44.709Z,10.50
2018-06-05T02:59:12.068Z,11.10
2018-06-05T03:01:39.361Z,11.80
2018-06-05T03:04:06.673Z,11.10
2018-06-05T03:06:33.974Z,10.60
2018-06-05T03:09:01.696Z,11.80
2018-06-05T03:11:29.048Z,11.13
2018-06-05T03:13:56.337Z,11.70
2018-06-05T03:16:23.628Z,10.93
2018-06-05T03:18:50.924Z,10.87
2018-06-05T03:21:18.227Z,11.07
2018-06-05T03:23:45.569Z,11.57
2018-06-05T03:26:12.917Z,11.37
2018-06-05T03:28:40.232Z,12.63
2018-06-05T03:31:07.628Z,11.13
2018-06-05T03:33:34.937Z,10.90
2018-06-05T03:36:02.250Z,10.70
2018-06-05T03:38:29.530Z,12.63
2018-06-05T03:40:56.873Z,11.83
2018-06-05T03:43:24.283Z,11.40
2018-06-05T03:45:51.670Z,13.13
2018-06-05T03:48:18.996Z,12.73
2018-06-05T03:50:46.408Z,12.03
2018-06-05T03:53:13.752Z,12.17
2018-06-05T03:55:41.115Z,12.20
2018-06-05T03:58:08.598Z,13.63
2018-06-05T04:00:35.967Z,13.00
2018-06-05T04:03:03.298Z,13.13
2018-06-05T04:05:30.581Z,13.13
2018-06-05T04:07:57.883Z,13.47
2018-06-05T04:10:25.238Z,12.60
2018-06-05T04:12:52.573Z,12.90
2018-06-05T04:15:19.883Z,13.30
2018-06-05T04:17:47.232Z,13.00
2018-06-05T04:20:14.552Z,13.60
2018-06-05T04:22:41.892Z,13.63
2018-06-05T04:25:09.460Z,14.10
2018-06-05T04:27:36.864Z,13.30
2018-06-05T04:30:04.200Z,13.80
2018-06-05T04:32:31.506Z,14.13
2018-06-05T04:34:58.829Z,13.40
2018-06-05T04:37:26.151Z,14.50
2018-06-05T04:39:53.486Z,13.73
2018-06-05T04:42:20.768Z,12.93
2018-06-05T04:44:49.095Z,13.97
2018-06-05T04:47:16.453Z,12.57
2018-06-05T04:49:43.813Z,13.73
2018-06-05T04:52:11.178Z,14.10
2018-06-05T04:54:38.506Z,15.17
2018-06-05T04:57:05.854Z,13.90
2018-06-05T04:59:33.223Z,13.30
2018-06-05T05:02:00.537Z,14.53
2018-06-05T05:04:27.869Z,14.40
2018-06-05T05:06:55.207Z,12.70
2018-06-05T05:09:22.572Z,14.10
2018-06-05T05:11:49.925Z,14.00
2018-06-05T05:14:17.297Z,13.60
2018-06-05T05:16:44.724Z,12.83
2018-06-05T05:19:12.069Z,12.50
2018-06-05T05:21:39.506Z,12.90
2018-06-05T05:24:06.945Z,12.60
2018-06-05T05:26:34.233Z,13.57
2018-06-05T05:29:01.549Z,12.30
2018-06-05T05:31:28.904Z,13.10
2018-06-05T05:33:56.858Z,13.23
2018-06-05T05:36:24.457Z,13.07
2018-06-05T05:38:51.814Z,12.73
2018-06-05T05:41:19.660Z,14.17
2018-06-05T05:43:47.018Z,13.53
2018-06-05T05:46:14.392Z,13.10
2018-06-05T05:48:41.719Z,11.10
2018-06-05T05:51:09.017Z,12.87
2018-06-05T05:53:36.409Z,12.30
2018-06-05T05:56:03.726Z,11.50
2018-06-05T05:58:31.038Z,11.93
2018-06-05T06:00:58.394Z,11.77
2018-06-05T06:03:25.792Z,13.50
2018-06-05T06:05:53.122Z,12.40
2018-06-05T06:08:20.460Z,11.67
2018-06-05T06:10:47.842Z,12.30
2018-06-05T06:13:15.171Z,11.93
2018-06-05T06:15:42.563Z,11.70
2018-06-05T06:18:09.984Z,12.50
2018-06-05T06:20:37.373Z,12.13
2018-06-05T06:23:04.796Z,11.30
2018-06-05T06:25:32.289Z,12.33
2018-06-05T06:27:59.640Z,11.90
2018-06-05T06:30:27.071Z,12.07
2018-06-05T06:32:54.427Z,11.40
2018-06-05T06:35:22.783Z,11.60
2018-06-05T06:37:50.285Z,11.70
2018-06-05T06:40:17.597Z,11.63
2018-06-05T06:42:44.957Z,11.80
2018-06-05T06:45:12.294Z,11.13
2018-06-05T06:47:39.667Z,10.47
2018-06-05T06:50:07.160Z,10.87
2018-06-05T06:52:34.468Z,10.40
2018-06-05T06:55:01.770Z,9.90
2018-06-05T06:57:29.078Z,9.90
2018-06-05T06:59:56.382Z,10.93
2018-06-05T07:02:23.954Z,9.40
2018-06-05T07:04:51.439Z,9.80
2018-06-05T07:07:18.840Z,10.07
2018-06-05T07:09:46.128Z,9.83
2018-06-05T07:12:13.880Z,9.80
2018-06-05T07:14:41.242Z,10.43
2018-06-05T07:17:08.578Z,10.20
2018-06-05T07:19:36.025Z,9.83
2018-06-05T07:22:03.392Z,10.43
2018-06-05T07:24:30.714Z,9.80
2018-06-05T07:26:58.110Z,9.70
2018-06-05T07:29:25.952Z,10.03
2018-06-05T07:31:53.351Z,9.70
2018-06-05T07:34:20.795Z,10.27
2018-06-05T07:36:48.155Z,9.60
2018-06-05T07:39:15.462Z,10.00
2018-06-05T07:41:42.783Z,10.63
2018-06-05T07:44:10.121Z,10.10
2018-06-05T07:46:37.454Z,9.60
2018-06-05T07:49:04.787Z,9.67
2018-06-05T07:51:32.138Z,11.53
2018-06-05T07:53:59.543Z,10.50
2018-06-05T07:56:26.885Z,11.10
2018-06-05T07:58:54.258Z,10.80
2018-06-05T08:01:21.571Z,9.67
2018-06-05T08:03:48.992Z,9.20
2018-06-05T08:06:16.337Z,9.70
2018-06-05T08:08:44.189Z,9.97
2018-06-05T08:11:11.511Z,10.30
2018-06-05T08:13:38.875Z,11.10
2018-06-05T08:16:06.181Z,10.50
2018-06-05T08:18:33.904Z,9.47
2018-06-05T08:21:01.250Z,10.57
2018-06-05T08:23:28.608Z,9.47
2018-06-05T08:25:55.994Z,9.90
2018-06-05T08:28:23.361Z,10.43
2018-06-05T08:30:50.752Z,10.50
2018-06-05T08:33:18.139Z,11.33
2018-06-05T08:35:45.545Z,9.63
2018-06-05T08:38:12.966Z,10.07
2018-06-05T08:40:40.273Z,9.37
2018-06-05T08:43:07.598Z,10.37
2018-06-05T08:45:34.950Z,9.30
2018-06-05T08:48:02.297Z,9.97
2018-06-05T08:50:29.634Z,10.37
2018-06-05T08:52:56.956Z,10.40
2018-06-05T08:55:24.347Z,10.10
2018-06-05T08:57:51.676Z,9.53
2018-06-05T09:00:19.004Z,9.20
2018-06-05T09:02:46.333Z,10.20
2018-06-05T09:05:13.714Z,9.70
2018-06-05T09:07:41.050Z,10.10
2018-06-05T09:10:08.514Z,10.30
2018-06-05T09:12:36.353Z,10.00
2018-06-05T09:15:03.744Z,10.30
2018-06-05T09:17:31.101Z,10.00
2018-06-05T09:19:58.427Z,10.10
2018-06-05T09:22:25.726Z,10.03
2018-06-05T09:24:53.089Z,10.13
2018-06-05T09:27:21.331Z,10.30
2018-06-05T09:29:48.663Z,10.03
2018-06-05T09:32:16.215Z,9.93
2018-06-05T09:34:43.545Z,10.47
2018-06-05T09:37:10.876Z,10.83
2018-06-05T09:39:38.304Z,11.27
2018-06-05T09:42:05.796Z,10.77
2018-06-05T09:44:33.147Z,10.30
2018-06-05T09:47:00.456Z,10.27
2018-06-05T09:49:27.780Z,10.33
2018-06-05T09:51:55.161Z,11.00
2018-06-05T09:54:23.387Z,11.23
2018-06-05T09:56:50.732Z,11.87
2018-06-05T09:59:18.259Z,10.13
2018-06-05T10:01:45.585Z,9.63
2018-06-05T10:04:12.996Z,10.00
2018-06-05T10:06:40.381Z,10.80
2018-06-05T10:09:08.685Z,10.17
2018-06-05T10:11:36.004Z,10.70
2018-06-05T10:14:03.509Z,10.93
2018-06-05T10:16:30.863Z,11.00
2018-06-05T10:18:58.190Z,8.90
2018-06-05T10:21:25.484Z,9.27
2018-06-05T10:23:52.832Z,9.57
2018-06-05T10:26:20.218Z,10.43
2018-06-05T10:28:47.657Z,9.63
2018-06-05T10:31:14.989Z,9.30
2018-06-05T10:33:44.377Z,10.03
2018-06-05T10:36:11.687Z,9.70
2018-06-05T10:38:39.086Z,10.37
2018-06-05T10:41:06.447Z,10.00
2018-06-05T10:43:33.829Z,9.80
2018-06-05T10:46:01.134Z,10.37
2018-06-05T10:48:28.451Z,12.50
2018-06-05T10:50:55.774Z,11.80
2018-06-05T10:53:23.088Z,13.53
2018-06-05T10:55:50.430Z,12.13
2018-06-05T10:58:17.727Z,10.57
2018-06-05T11:00:45.201Z,11.50
2018-06-05T11:03:12.512Z,10.53
2018-06-05T11:05:39.844Z,12.80
2018-06-05T11:08:07.159Z,11.47
2018-06-05T11:10:34.485Z,11.67
2018-06-05T11:13:01.807Z,11.83
2018-06-05T11:15:29.141Z,12.47
2018-06-05T11:17:56.484Z,13.07
2018-06-05T11:20:23.857Z,11.60
2018-06-05T11:22:51.215Z,12.50
2018-06-05T11:25:18.595Z,10.07
2018-06-05T11:27:45.947Z,10.00
2018-06-05T11:30:13.427Z,9.40
2018-06-05T11:32:40.744Z,9.37
2018-06-05T11:35:08.060Z,10.07
2018-06-05T11:37:35.382Z,10.03
2018-06-05T11:40:02.765Z,9.03
2018-06-05T11:42:30.159Z,9.37
2018-06-05T11:44:57.496Z,9.23
2018-06-05T11:47:24.850Z,9.50
2018-06-05T11:49:52.150Z,9.80
2018-06-05T11:52:19.493Z,9.70
2018-06-05T11:54:46.829Z,10.07
2018-06-05T11:57:14.116Z,9.20
2018-06-05T11:59:41.442Z,9.10
2018-06-05T12:02:08.790Z,9.17
2018-06-05T12:04:36.072Z,9.50
2018-06-05T12:07:03.458Z,9.30
2018-06-05T12:09:30.897Z,9.20
2018-06-05T12:11:58.206Z,8.80
2018-06-05T12:14:25.529Z,9.17
2018-06-05T12:16:52.827Z,9.00
2018-06-05T12:19:20.153Z,7.90
2018-06-05T12:21:47.570Z,8.20
2018-06-05T12:24:14.876Z,7.87
2018-06-05T12:26:42.234Z,8.90
2018-06-05T12:29:09.527Z,9.20
2018-06-05T12:31:36.857Z,9.30
2018-06-05T12:34:04.207Z,8.90
2018-06-05T12:36:31.487Z,9.10
2018-06-05T12:38:58.822Z,8.60
2018-06-05T12:41:26.141Z,9.00
2018-06-05T12:43:54.144Z,9.40
2018-06-05T12:46:21.509Z,8.13
2018-06-05T12:48:48.850Z,8.83
2018-06-05T12:51:16.182Z,8.50
2018-06-05T12:53:43.648Z,10.10
2018-06-05T12:56:11.098Z,8.70
2018-06-05T12:58:38.399Z,7.63
2018-06-05T13:01:05.790Z,9.17
2018-06-05T13:03:33.113Z,9.33
2018-06-05T13:06:00.457Z,9.23
2018-06-05T13:08:27.789Z,8.40
2018-06-05T13:10:55.232Z,8.90
2018-06-05T13:13:22.617Z,9.90
2018-06-05T13:15:49.903Z,9.43
2018-06-05T13:18:17.260Z,9.43
2018-06-05T13:20:44.637Z,9.20
2018-06-05T13:23:12.044Z,8.93
2018-06-05T13:25:39.445Z,9.20
2018-06-05T13:28:06.786Z,8.13
2018-06-05T13:30:34.071Z,7.43
2018-06-05T13:33:01.441Z,9.27
2018-06-05T13:35:28.799Z,9.20
2018-06-05T13:37:56.080Z,9.67
2018-06-05T13:40:23.411Z,8.97
2018-06-05T13:42:50.763Z,7.80
2018-06-05T13:45:18.091Z,9.60
2018-06-05T13:47:45.403Z,9.17
2018-06-05T13:50:12.732Z,8.37
2018-06-05T13:52:40.108Z,9.43
2018-06-05T13:55:07.417Z,8.57
2018-06-05T13:57:34.743Z,8.93
2018-06-05T14:00:02.056Z,7.83
2018-06-05T14:02:29.351Z,8.47
2018-06-05T14:04:56.801Z,8.43
2018-06-05T14:07:24.152Z,7.60
2018-06-05T14:09:51.464Z,7.47
2018-06-05T14:12:18.808Z,8.50
2018-06-05T14:14:46.141Z,8.03
2018-06-05T14:17:13.566Z,8.40
2018-06-05T14:19:40.857Z,7.57
2018-06-05T14:22:08.233Z,7.93
2018-06-05T14:24:35.589Z,8.13
2018-06-05T14:27:03.159Z,8.43
2018-06-05T14:29:30.426Z,8.57
2018-06-05T14:31:57.769Z,8.70
2018-06-05T14:34:25.142Z,9.97
2018-06-05T14:36:52.511Z,10.00
2018-06-05T14:39:19.830Z,10.70
2018-06-05T14:41:47.275Z,9.60
2018-06-05T14:44:14.579Z,9.90
2018-06-05T14:46:41.894Z,10.00
2018-06-05T14:49:09.235Z,10.00
2018-06-05T14:51:36.545Z,9.23
2018-06-05T14:54:03.937Z,9.57
2018-06-05T14:56:31.273Z,8.67
2018-06-05T14:58:58.589Z,8.00
2018-06-05T15:01:25.980Z,8.47
2018-06-05T15:03:53.295Z,8.77
2018-06-05T15:06:20.591Z,9.23
2018-06-05T15:08:47.891Z,9.67
2018-06-05T15:11:15.345Z,9.27
2018-06-05T15:13:42.692Z,9.80
2018-06-05T15:16:10.018Z,10.30
2018-06-05T15:18:37.353Z,9.43
2018-06-05T15:21:04.672Z,10.00
2018-06-05T15:23:32.001Z,9.73
2018-06-05T15:25:59.391Z,9.97
2018-06-05T15:28:26.728Z,9.73
2018-06-05T15:30:54.120Z,9.37
2018-06-05T15:33:21.456Z,10.00
2018-06-05T15:35:48.848Z,9.60
2018-06-05T15:38:16.171Z,9.70
2018-06-05T15:40:43.634Z,10.23
2018-06-05T15:43:13.041Z,9.40
2018-06-05T15:45:40.396Z,9.03
2018-06-05T15:48:07.779Z,9.10
2018-06-05T15:50:35.178Z,9.07
2018-06-05T15:53:02.502Z,10.03
2018-06-05T15:55:29.805Z,10.30
2018-06-05T15:57:57.328Z,9.27
2018-06-05T16:00:24.634Z,8.53
2018-06-05T16:02:51.969Z,9.60
2018-06-05T16:05:19.280Z,9.70
2018-06-05T16:07:46.608Z,10.07
2018-06-05T16:10:14.016Z,9.70
2018-06-05T16:12:41.392Z,8.40
2018-06-05T16:15:08.745Z,9.33
2018-06-05T16:17:36.092Z,9.53
2018-06-05T16:20:03.906Z,9.00
2018-06-05T16:22:31.340Z,10.43
2018-06-05T16:24:58.672Z,9.90
2018-06-05T16:27:26.031Z,9.67
2018-06-05T16:29:53.360Z,9.10
2018-06-05T16:32:20.720Z,9.80
2018-06-05T16:34:48.035Z,9.17
2018-06-05T16:37:15.418Z,9.40
2018-06-05T16:39:43.017Z,9.07
2018-06-05T16:42:10.439Z,9.07
2018-06-05T16:44:37.724Z,9.70
2018-06-05T16:47:05.092Z,10.13
2018-06-05T16:49:32.412Z,10.10
2018-06-05T16:51:59.696Z,9.23
2018-06-05T16:54:27.027Z,9.07
2018-06-05T16:56:54.345Z,8.77
2018-06-05T16:59:21.737Z,9.50
2018-06-05T17:01:49.059Z,9.47
2018-06-05T17:04:16.419Z,9.63
2018-06-05T17:06:43.749Z,9.40
2018-06-05T17:09:11.199Z,9.10
2018-06-05T17:11:38.587Z,9.00
2018-06-05T17:14:05.956Z,9.10
2018-06-05T17:16:33.369Z,9.60
2018-06-05T17:19:00.743Z,9.13
2018-06-05T17:21:28.150Z,9.90
2018-06-05T17:23:55.498Z,9.27
2018-06-05T17:26:22.822Z,8.93
2018-06-05T17:28:50.131Z,8.63
2018-06-05T17:31:17.466Z,9.70
2018-06-05T17:33:44.771Z,9.20
2018-06-05T17:36:12.157Z,8.50
2018-06-05T17:38:39.508Z,9.30
2018-06-05T17:41:07.184Z,9.33
2018-06-05T17:43:34.721Z,8.47
2018-06-05T17:46:02.070Z,8.70
2018-06-05T17:48:29.576Z,8.93
2018-06-05T17:50:56.855Z,9.07
2018-06-05T17:53:24.349Z,9.33
2018-06-05T17:55:51.734Z,9.77
2018-06-05T17:58:19.057Z,8.90
2018-06-05T18:00:47.007Z,9.17
2018-06-05T18:03:14.359Z,9.30
2018-06-05T18:05:41.889Z,9.30
2018-06-05T18:08:09.296Z,8.90
2018-06-05T18:10:36.610Z,9.93
2018-06-05T18:13:04.006Z,9.60
2018-06-05T18:15:31.322Z,9.20
2018-06-05T18:17:58.728Z,9.93
2018-06-05T18:20:26.302Z,9.87
2018-06-05T18:22:53.643Z,8.90
2018-06-05T18:25:21.001Z,8.40
2018-06-05T18:27:48.306Z,9.07
2018-06-05T18:30:15.686Z,9.10
2018-06-05T18:32:43.191Z,9.43
2018-06-05T18:35:10.578Z,8.80
2018-06-05T18:37:38.005Z,9.40
2018-06-05T18:40:05.714Z,9.50
2018-06-05T18:42:33.190Z,9.23
2018-06-05T18:45:00.517Z,9.60
2018-06-05T18:47:28.086Z,9.20
2018-06-05T18:49:55.444Z,10.03
2018-06-05T18:52:22.812Z,8.30
2018-06-05T18:54:50.112Z,9.37
2018-06-05T18:57:17.605Z,9.17
2018-06-05T18:59:45.030Z,8.30
2018-06-05T19:02:12.406Z,8.17
2018-06-05T19:04:39.772Z,8.10
2018-06-05T19:07:07.137Z,7.80
2018-06-05T19:09:34.457Z,7.07
2018-06-05T19:12:01.772Z,7.60
2018-06-05T19:14:29.150Z,8.03
2018-06-05T19:16:56.701Z,8.57
2018-06-05T19:19:24.077Z,7.93
2018-06-05T19:21:51.489Z,7.20
2018-06-05T19:24:18.872Z,7.70
2018-06-05T19:26:46.529Z,7.50
2018-06-05T19:29:13.985Z,7.60
2018-06-05T19:31:41.276Z,7.80
2018-06-05T19:34:08.767Z,7.87
2018-06-05T19:36:36.259Z,8.00
2018-06-05T19:39:04.506Z,7.03
2018-06-05T19:41:32.577Z,7.47
2018-06-05T19:43:59.875Z,7.23
2018-06-05T19:46:27.277Z,7.90
2018-06-05T19:48:54.648Z,7.07
2018-06-05T19:51:22.298Z,8.17
2018-06-05T19:53:49.570Z,7.00
2018-06-05T19:56:16.964Z,7.00
2018-06-05T19:58:44.327Z,7.17
2018-06-05T20:01:11.680Z,7.60
2018-06-05T20:03:39.044Z,7.40
2018-06-05T20:06:06.428Z,6.67
2018-06-05T20:08:33.786Z,6.33
2018-06-05T20:11:01.427Z,7.30
2018-06-05T20:13:28.843Z,7.23
2018-06-05T20:15:56.226Z,6.33
2018-06-05T20:18:23.554Z,6.27
2018-06-05T20:20:50.968Z,6.07
2018-06-05T20:23:18.249Z,6.60
2018-06-05T20:25:45.630Z,6.50
2018-06-05T20:28:13.079Z,6.23
2018-06-05T20:30:40.532Z,6.10
2018-06-05T20:33:07.800Z,6.80
2018-06-05T20:35:35.245Z,6.33
2018-06-05T20:38:02.549Z,7.10
2018-06-05T20:40:29.931Z,6.87
2018-06-05T20:42:57.317Z,6.97
2018-06-05T20:45:24.718Z,6.73
2018-06-05T20:47:52.026Z,7.20
2018-06-05T20:50:19.317Z,7.27
2018-06-05T20:52:46.671Z,6.73
2018-06-05T20:55:14.038Z,7.10
2018-06-05T20:57:41.541Z,6.67
2018-06-05T21:00:08.845Z,7.03
2018-06-05T21:02:36.162Z,6.77
2018-06-05T21:05:03.588Z,6.90
2018-06-05T21:07:30.945Z,6.80
2018-06-05T21:09:58.233Z,7.60
2018-06-05T21:12:25.574Z,6.80
2018-06-05T21:14:52.874Z,7.40
2018-06-05T21:17:20.224Z,7.53
2018-06-05T21:19:47.539Z,7.03
2018-06-05T21:22:14.841Z,7.83
2018-06-05T21:24:42.199Z,8.00
2018-06-05T21:27:09.521Z,8.03
2018-06-05T21:29:36.822Z,7.67
2018-06-05T21:32:04.144Z,7.40
2018-06-05T21:34:31.462Z,7.67
2018-06-05T21:36:58.839Z,7.50
2018-06-05T21:39:26.203Z,6.43
2018-06-05T21:41:53.557Z,7.37
2018-06-05T21:44:20.896Z,7.30
2018-06-05T21:46:48.599Z,7.30
2018-06-05T21:49:15.917Z,7.63
2018-06-05T21:51:43.232Z,7.30
2018-06-05T21:54:10.534Z,7.27
2018-06-05T21:56:37.868Z,7.30
2018-06-05T21:59:05.277Z,7.00
2018-06-05T22:01:32.622Z,6.93
2018-06-05T22:03:59.932Z,7.87
2018-06-05T22:06:27.264Z,7.83
2018-06-05T22:08:54.639Z,8.67
2018-06-05T22:11:21.939Z,7.93
2018-06-05T22:13:49.385Z,8.17
2018-06-05T22:16:16.720Z,8.00
2018-06-05T22:18:44.411Z,8.00
2018-06-05T22:21:11.780Z,8.30
2018-06-05T22:23:39.115Z,7.87
2018-06-05T22:26:06.609Z,7.87
2018-06-05T22:28:33.978Z,7.50
2018-06-05T22:31:01.294Z,8.07
2018-06-05T22:33:28.637Z,8.33
2018-06-05T22:35:55.942Z,8.23
2018-06-05T22:38:23.217Z,8.60
2018-06-05T22:40:50.748Z,7.70
2018-06-05T22:43:18.078Z,8.30
2018-06-05T22:45:45.507Z,8.07
2018-06-05T22:48:12.858Z,8.20
2018-06-05T22:50:40.266Z,8.37
2018-06-05T22:53:07.674Z,7.80
2018-06-05T22:55:35.006Z,8.60
2018-06-05T22:58:02.402Z,8.37
2018-06-05T23:00:31.649Z,8.93
2018-06-05T23:02:58.981Z,8.13
2018-06-05T23:05:26.425Z,8.70
2018-06-05T23:07:53.782Z,8.47
2018-06-05T23:10:21.117Z,8.10
2018-06-05T23:12:48.410Z,7.60
2018-06-05T23:15:15.750Z,8.50
2018-06-05T23:17:43.060Z,8.70
2018-06-05T23:20:10.446Z,8.17
2018-06-05T23:22:37.761Z,8.50
2018-06-05T23:25:05.185Z,8.40
2018-06-05T23:27:32.521Z,8.37
2018-06-05T23:29:59.843Z,8.40
2018-06-05T23:32:27.149Z,8.10
2018-06-05T23:34:54.542Z,8.57
2018-06-05T23:37:21.827Z,9.17
2018-06-05T23:39:49.195Z,7.90
2018-06-05T23:42:16.533Z,9.03
2018-06-05T23:44:43.908Z,8.20
2018-06-05T23:47:11.288Z,9.20
2018-06-05T23:49:38.599Z,8.20
2018-06-05T23:52:06.004Z,8.90
2018-06-05T23:54:33.388Z,8.37
2018-06-05T23:57:00.766Z,8.80
2018-06-05T23:59:28.049Z,9.10
